Terminal Aerodrome Forecast
Issued by NWS Cheyenne, WY

Home | Current Version | Previous Version | Text Only | Print | Product List | Glossary On
Versions: 1 2 3 4 5 6 7 8 9 10 11 12 13 14 15 16 17 18 19 20 21 22 23 24 25 26 27 28 29 30 31 32 33 34 35 36 37 38 39 40 41 42
000
FTUS45 KCYS 251720
TAFCYS
TAF
KCYS 251720Z 2518/2618 22010G20KT P6SM BKN150
     FM252100 18010G20KT P6SM BKN150
     FM260100 19006KT P6SM BKN100
     FM260900 33007KT 4SM -RA BR OVC015
     FM261500 34015G25KT P6SM BKN035=

USA.gov is the U.S. government's official web portal to all federal, state and local government web resources and services.